Pagina principale
METAR-TAF:

METAR-TAF

Aeroporti :

Aeroporto di Firenze-Peretola

Firenze, Italia

latitudine: 43-48N, longitudine: 011-12E, altezza: 40 m

Osservazione

Il bollettino è stato emesso 29 minuti fa, alle 22:20 UTC
Vento 2 kt da direzioni variabili
Temperature 12°C
Umidità 94%
Pressione 1026 hPa
Visibilità 10 km o più
Nuvoloso ad un'altezza di 3000 ft

METAR: LIRQ 292220Z VRB02KT 9999 BKN030 12/11 Q1026

Ora: 00:49 (22:49 UTC)

Previsione

Il bollettino è stato emesso 5 ore e 49 minuti fa, alle 17:00 UTC
Previsione valida dal 29 alle 18 UTC al 30 alle 18 UTC
Vento 5 kt da direzioni variabili
Visibilità 10 km o più
Nubi sparse ad un'altezza di 3000 ft
Evoluzione graduale
dal 30 alle 09 UTC al 30 alle 11 UTC
Vento 12 kt da ovest/sud-ovest

TAF: LIRQ 291700Z 2918/3018 VRB05KT 9999 SCT030 BECMG 3009/3011 25012KT

Osservazioni e previsioni meteorologiche di più di 4000 aeroporti (messaggi METAR e TAF).

Le stazioni disponibili sono rappresentate dai dischi gialli e rossi sulla carta.

Puntare il mouse per vedere il nome della stazione.

Clicca sopra per visualizzare le osservazioni e previsioni meteorologiche.

Per cambiare la mappa : fare clic sui pulsanti verdi con una croce nera per ingrandire, il pulsante verde con un trattino per diminuire, o sulla freccia verde per le mappe adiacenti.


METAR-TAF: